sensor_id;sensor_type;location;lat;lon;timestamp;P1;durP1;ratioP1;P2;durP2;ratioP2
13067;SDS011;6600;51.362;6.686;2022-09-09T00:02:21;0.60;;;0.20;;
13067;SDS011;6600;51.362;6.686;2022-09-09T00:04:55;0.20;;;0.10;;
13067;SDS011;6600;51.362;6.686;2022-09-09T00:07:30;0.40;;;0.20;;
13067;SDS011;6600;51.362;6.686;2022-09-09T00:15:19;0.20;;;0.20;;
13067;SDS011;6600;51.362;6.686;2022-09-09T00:18:10;0.50;;;0.43;;
13067;SDS011;6600;51.362;6.686;2022-09-09T00:23:39;0.83;;;0.27;;
13067;SDS011;6600;51.362;6.686;2022-09-09T00:26:47;0.40;;;0.20;;
13067;SDS011;6600;51.362;6.686;2022-09-09T00:28:57;0.63;;;0.43;;
13067;SDS011;6600;51.362;6.686;2022-09-09T00:31:36;1.07;;;0.27;;
13067;SDS011;6600;51.362;6.686;2022-09-09T00:34:09;0.40;;;0.40;;
13067;SDS011;6600;51.362;6.686;2022-09-09T00:36:38;0.30;;;0.30;;
13067;SDS011;6600;51.362;6.686;2022-09-09T00:39:05;0.20;;;0.20;;
13067;SDS011;6600;51.362;6.686;2022-09-09T00:44:12;0.53;;;0.10;;
13067;SDS011;6600;51.362;6.686;2022-09-09T00:58:00;2.83;;;1.40;;
13067;SDS011;6600;51.362;6.686;2022-09-09T01:00:45;1.37;;;1.23;;
13067;SDS011;6600;51.362;6.686;2022-09-09T01:14:38;1.80;;;1.70;;
13067;SDS011;6600;51.362;6.686;2022-09-09T01:22:33;1.30;;;1.20;;
13067;SDS011;6600;51.362;6.686;2022-09-09T01:27:50;1.00;;;0.90;;
13067;SDS011;6600;51.362;6.686;2022-09-09T01:30:20;0.90;;;0.90;;
13067;SDS011;6600;51.362;6.686;2022-09-09T01:32:48;0.70;;;0.70;;
13067;SDS011;6600;51.362;6.686;2022-09-09T01:35:20;0.70;;;0.70;;
13067;SDS011;6600;51.362;6.686;2022-09-09T01:37:48;0.63;;;0.63;;
13067;SDS011;6600;51.362;6.686;2022-09-09T01:40:13;0.77;;;0.77;;
13067;SDS011;6600;51.362;6.686;2022-09-09T01:42:38;0.90;;;0.73;;
13067;SDS011;6600;51.362;6.686;2022-09-09T01:45:04;0.67;;;0.67;;
13067;SDS011;6600;51.362;6.686;2022-09-09T01:47:30;1.83;;;1.00;;
13067;SDS011;6600;51.362;6.686;2022-09-09T01:49:55;1.10;;;1.00;;
13067;SDS011;6600;51.362;6.686;2022-09-09T01:52:20;0.70;;;0.70;;
13067;SDS011;6600;51.362;6.686;2022-09-09T01:54:46;0.73;;;0.73;;
13067;SDS011;6600;51.362;6.686;2022-09-09T02:02:30;1.13;;;0.90;;
13067;SDS011;6600;51.362;6.686;2022-09-09T02:05:07;2.17;;;1.10;;
13067;SDS011;6600;51.362;6.686;2022-09-09T02:07:38;1.00;;;0.90;;
13067;SDS011;6600;51.362;6.686;2022-09-09T02:10:15;1.13;;;0.80;;
13067;SDS011;6600;51.362;6.686;2022-09-09T02:12:45;1.43;;;0.90;;
13067;SDS011;6600;51.362;6.686;2022-09-09T02:15:40;0.70;;;0.70;;
13067;SDS011;6600;51.362;6.686;2022-09-09T02:18:04;1.00;;;0.90;;
13067;SDS011;6600;51.362;6.686;2022-09-09T02:20:38;2.47;;;0.53;;
13067;SDS011;6600;51.362;6.686;2022-09-09T02:23:05;0.77;;;0.73;;
13067;SDS011;6600;51.362;6.686;2022-09-09T02:25:33;0.70;;;0.70;;
13067;SDS011;6600;51.362;6.686;2022-09-09T02:28:01;1.03;;;0.90;;
13067;SDS011;6600;51.362;6.686;2022-09-09T02:30:31;1.33;;;0.70;;
13067;SDS011;6600;51.362;6.686;2022-09-09T02:32:59;0.80;;;0.80;;
13067;SDS011;6600;51.362;6.686;2022-09-09T02:35:28;1.03;;;0.93;;
13067;SDS011;6600;51.362;6.686;2022-09-09T02:37:57;1.37;;;0.90;;
13067;SDS011;6600;51.362;6.686;2022-09-09T02:40:26;3.40;;;1.00;;
13067;SDS011;6600;51.362;6.686;2022-09-09T02:42:54;1.23;;;0.93;;
13067;SDS011;6600;51.362;6.686;2022-09-09T02:45:22;2.43;;;1.13;;
13067;SDS011;6600;51.362;6.686;2022-09-09T02:47:51;0.87;;;0.77;;
13067;SDS011;6600;51.362;6.686;2022-09-09T02:53:17;1.13;;;1.13;;
13067;SDS011;6600;51.362;6.686;2022-09-09T02:58:27;1.27;;;1.17;;
13067;SDS011;6600;51.362;6.686;2022-09-09T03:00:53;1.37;;;1.27;;
13067;SDS011;6600;51.362;6.686;2022-09-09T03:03:19;0.73;;;0.73;;
13067;SDS011;6600;51.362;6.686;2022-09-09T03:05:46;0.87;;;0.83;;
13067;SDS011;6600;51.362;6.686;2022-09-09T03:08:12;1.70;;;0.70;;
13067;SDS011;6600;51.362;6.686;2022-09-09T03:10:38;0.97;;;0.73;;
13067;SDS011;6600;51.362;6.686;2022-09-09T03:13:04;1.03;;;0.40;;
13067;SDS011;6600;51.362;6.686;2022-09-09T03:15:30;2.07;;;0.77;;
13067;SDS011;6600;51.362;6.686;2022-09-09T03:17:57;1.83;;;0.70;;
13067;SDS011;6600;51.362;6.686;2022-09-09T03:20:26;0.80;;;0.80;;
13067;SDS011;6600;51.362;6.686;2022-09-09T03:22:53;1.30;;;0.53;;
13067;SDS011;6600;51.362;6.686;2022-09-09T03:25:19;0.50;;;0.50;;
13067;SDS011;6600;51.362;6.686;2022-09-09T03:27:45;1.90;;;0.80;;
13067;SDS011;6600;51.362;6.686;2022-09-09T03:30:10;0.70;;;0.50;;
13067;SDS011;6600;51.362;6.686;2022-09-09T03:32:36;0.57;;;0.57;;
13067;SDS011;6600;51.362;6.686;2022-09-09T03:35:02;1.10;;;0.60;;
13067;SDS011;6600;51.362;6.686;2022-09-09T03:37:29;1.13;;;0.83;;
13067;SDS011;6600;51.362;6.686;2022-09-09T03:39:54;0.70;;;0.70;;
13067;SDS011;6600;51.362;6.686;2022-09-09T03:42:20;0.97;;;0.80;;
13067;SDS011;6600;51.362;6.686;2022-09-09T03:44:46;0.60;;;0.60;;
13067;SDS011;6600;51.362;6.686;2022-09-09T03:47:19;2.07;;;0.90;;
13067;SDS011;6600;51.362;6.686;2022-09-09T03:49:46;0.63;;;0.63;;
13067;SDS011;6600;51.362;6.686;2022-09-09T03:52:13;1.13;;;0.77;;
13067;SDS011;6600;51.362;6.686;2022-09-09T03:54:39;0.60;;;0.60;;
13067;SDS011;6600;51.362;6.686;2022-09-09T03:57:06;0.70;;;0.70;;
13067;SDS011;6600;51.362;6.686;2022-09-09T03:59:31;1.73;;;0.80;;
13067;SDS011;6600;51.362;6.686;2022-09-09T04:01:57;0.63;;;0.63;;
13067;SDS011;6600;51.362;6.686;2022-09-09T04:04:24;0.70;;;0.70;;
13067;SDS011;6600;51.362;6.686;2022-09-09T04:06:49;1.07;;;0.70;;
13067;SDS011;6600;51.362;6.686;2022-09-09T04:09:16;1.83;;;0.50;;
13067;SDS011;6600;51.362;6.686;2022-09-09T04:11:41;2.70;;;0.97;;
13067;SDS011;6600;51.362;6.686;2022-09-09T04:14:06;1.63;;;1.03;;
13067;SDS011;6600;51.362;6.686;2022-09-09T04:16:32;0.90;;;0.67;;
13067;SDS011;6600;51.362;6.686;2022-09-09T04:18:58;2.97;;;1.00;;
13067;SDS011;6600;51.362;6.686;2022-09-09T04:21:25;0.80;;;0.80;;
13067;SDS011;6600;51.362;6.686;2022-09-09T04:23:51;0.60;;;0.60;;
13067;SDS011;6600;51.362;6.686;2022-09-09T04:26:16;0.90;;;0.80;;
13067;SDS011;6600;51.362;6.686;2022-09-09T04:28:42;1.30;;;0.73;;
13067;SDS011;6600;51.362;6.686;2022-09-09T04:31:12;0.73;;;0.73;;
13067;SDS011;6600;51.362;6.686;2022-09-09T04:33:42;1.73;;;1.27;;
13067;SDS011;6600;51.362;6.686;2022-09-09T04:36:07;2.13;;;0.63;;
13067;SDS011;6600;51.362;6.686;2022-09-09T04:38:33;1.10;;;0.97;;
13067;SDS011;6600;51.362;6.686;2022-09-09T04:40:58;0.97;;;0.97;;
13067;SDS011;6600;51.362;6.686;2022-09-09T04:43:24;1.17;;;0.73;;
13067;SDS011;6600;51.362;6.686;2022-09-09T04:45:50;2.17;;;1.17;;
13067;SDS011;6600;51.362;6.686;2022-09-09T04:48:16;2.10;;;1.00;;
13067;SDS011;6600;51.362;6.686;2022-09-09T04:50:42;4.20;;;1.27;;
13067;SDS011;6600;51.362;6.686;2022-09-09T04:53:07;0.83;;;0.83;;
13067;SDS011;6600;51.362;6.686;2022-09-09T04:55:33;1.07;;;0.97;;
13067;SDS011;6600;51.362;6.686;2022-09-09T04:58:06;2.23;;;1.10;;
13067;SDS011;6600;51.362;6.686;2022-09-09T05:00:35;2.63;;;0.83;;
13067;SDS011;6600;51.362;6.686;2022-09-09T05:03:04;0.97;;;0.63;;
13067;SDS011;6600;51.362;6.686;2022-09-09T05:05:31;2.23;;;1.47;;
13067;SDS011;6600;51.362;6.686;2022-09-09T05:08:02;0.80;;;0.80;;
13067;SDS011;6600;51.362;6.686;2022-09-09T05:10:32;2.33;;;1.10;;
13067;SDS011;6600;51.362;6.686;2022-09-09T05:12:58;1.70;;;0.90;;
13067;SDS011;6600;51.362;6.686;2022-09-09T05:15:24;1.67;;;1.07;;
13067;SDS011;6600;51.362;6.686;2022-09-09T05:17:49;1.17;;;1.07;;
13067;SDS011;6600;51.362;6.686;2022-09-09T05:20:14;1.73;;;0.83;;
13067;SDS011;6600;51.362;6.686;2022-09-09T05:22:40;2.30;;;1.03;;
13067;SDS011;6600;51.362;6.686;2022-09-09T05:25:05;1.50;;;1.40;;
13067;SDS011;6600;51.362;6.686;2022-09-09T05:27:33;7.03;;;1.50;;
13067;SDS011;6600;51.362;6.686;2022-09-09T05:29:58;5.77;;;1.20;;
13067;SDS011;6600;51.362;6.686;2022-09-09T05:32:24;4.27;;;1.20;;
13067;SDS011;6600;51.362;6.686;2022-09-09T05:34:49;1.23;;;1.00;;
13067;SDS011;6600;51.362;6.686;2022-09-09T05:37:16;0.70;;;0.70;;
13067;SDS011;6600;51.362;6.686;2022-09-09T05:39:41;1.20;;;0.90;;
13067;SDS011;6600;51.362;6.686;2022-09-09T05:42:07;1.10;;;0.90;;
13067;SDS011;6600;51.362;6.686;2022-09-09T05:44:32;2.53;;;1.07;;
13067;SDS011;6600;51.362;6.686;2022-09-09T05:46:57;1.70;;;0.90;;
13067;SDS011;6600;51.362;6.686;2022-09-09T05:49:23;1.17;;;1.10;;
13067;SDS011;6600;51.362;6.686;2022-09-09T05:51:49;1.47;;;0.70;;
13067;SDS011;6600;51.362;6.686;2022-09-09T05:54:15;0.70;;;0.70;;
13067;SDS011;6600;51.362;6.686;2022-09-09T05:56:41;0.77;;;0.77;;
13067;SDS011;6600;51.362;6.686;2022-09-09T05:59:07;1.50;;;0.77;;
13067;SDS011;6600;51.362;6.686;2022-09-09T06:01:34;1.30;;;0.77;;
13067;SDS011;6600;51.362;6.686;2022-09-09T06:04:01;1.00;;;0.90;;
13067;SDS011;6600;51.362;6.686;2022-09-09T06:06:30;1.50;;;0.60;;
13067;SDS011;6600;51.362;6.686;2022-09-09T06:08:59;0.90;;;0.90;;
13067;SDS011;6600;51.362;6.686;2022-09-09T06:11:26;2.37;;;0.83;;
13067;SDS011;6600;51.362;6.686;2022-09-09T06:13:56;0.80;;;0.77;;
13067;SDS011;6600;51.362;6.686;2022-09-09T06:16:23;2.43;;;0.70;;
13067;SDS011;6600;51.362;6.686;2022-09-09T06:18:50;0.73;;;0.73;;
13067;SDS011;6600;51.362;6.686;2022-09-09T06:21:17;1.00;;;0.97;;
13067;SDS011;6600;51.362;6.686;2022-09-09T06:23:44;0.87;;;0.60;;
13067;SDS011;6600;51.362;6.686;2022-09-09T06:26:11;1.70;;;1.23;;
13067;SDS011;6600;51.362;6.686;2022-09-09T06:28:39;1.83;;;1.17;;
13067;SDS011;6600;51.362;6.686;2022-09-09T06:31:05;2.20;;;1.07;;
13067;SDS011;6600;51.362;6.686;2022-09-09T06:33:37;2.00;;;1.00;;
13067;SDS011;6600;51.362;6.686;2022-09-09T06:36:10;0.97;;;0.93;;
13067;SDS011;6600;51.362;6.686;2022-09-09T06:38:38;2.87;;;1.07;;
13067;SDS011;6600;51.362;6.686;2022-09-09T06:41:03;2.40;;;0.90;;
13067;SDS011;6600;51.362;6.686;2022-09-09T06:43:30;0.73;;;0.57;;
13067;SDS011;6600;51.362;6.686;2022-09-09T06:46:00;2.93;;;0.80;;
13067;SDS011;6600;51.362;6.686;2022-09-09T06:48:29;1.40;;;0.67;;
13067;SDS011;6600;51.362;6.686;2022-09-09T06:51:04;0.70;;;0.70;;
13067;SDS011;6600;51.362;6.686;2022-09-09T06:53:33;1.10;;;0.60;;
13067;SDS011;6600;51.362;6.686;2022-09-09T06:56:01;1.53;;;0.53;;
13067;SDS011;6600;51.362;6.686;2022-09-09T06:58:27;1.50;;;0.93;;
13067;SDS011;6600;51.362;6.686;2022-09-09T07:01:01;3.50;;;1.37;;
13067;SDS011;6600;51.362;6.686;2022-09-09T07:03:30;1.40;;;0.43;;
13067;SDS011;6600;51.362;6.686;2022-09-09T07:05:56;0.40;;;0.40;;
13067;SDS011;6600;51.362;6.686;2022-09-09T07:08:22;2.23;;;0.60;;
13067;SDS011;6600;51.362;6.686;2022-09-09T07:10:47;1.80;;;0.70;;
13067;SDS011;6600;51.362;6.686;2022-09-09T07:13:13;2.17;;;0.93;;
13067;SDS011;6600;51.362;6.686;2022-09-09T07:15:40;0.47;;;0.47;;
13067;SDS011;6600;51.362;6.686;2022-09-09T07:18:06;2.27;;;0.87;;
13067;SDS011;6600;51.362;6.686;2022-09-09T07:20:31;0.60;;;0.47;;
13067;SDS011;6600;51.362;6.686;2022-09-09T07:22:57;1.50;;;0.57;;
13067;SDS011;6600;51.362;6.686;2022-09-09T07:25:24;0.40;;;0.40;;
13067;SDS011;6600;51.362;6.686;2022-09-09T07:27:49;2.23;;;0.60;;
13067;SDS011;6600;51.362;6.686;2022-09-09T07:30:15;1.20;;;0.80;;
13067;SDS011;6600;51.362;6.686;2022-09-09T07:32:40;0.90;;;0.57;;
13067;SDS011;6600;51.362;6.686;2022-09-09T07:35:05;1.90;;;0.47;;
13067;SDS011;6600;51.362;6.686;2022-09-09T07:37:31;1.37;;;0.80;;
13067;SDS011;6600;51.362;6.686;2022-09-09T07:39:56;0.70;;;0.70;;
13067;SDS011;6600;51.362;6.686;2022-09-09T07:42:22;1.67;;;0.60;;
13067;SDS011;6600;51.362;6.686;2022-09-09T07:44:47;0.33;;;0.30;;
13067;SDS011;6600;51.362;6.686;2022-09-09T07:47:13;0.53;;;0.47;;
13067;SDS011;6600;51.362;6.686;2022-09-09T07:49:38;0.47;;;0.47;;
13067;SDS011;6600;51.362;6.686;2022-09-09T07:52:03;1.03;;;0.50;;
13067;SDS011;6600;51.362;6.686;2022-09-09T07:54:29;1.27;;;0.40;;
13067;SDS011;6600;51.362;6.686;2022-09-09T07:56:54;0.73;;;0.67;;
13067;SDS011;6600;51.362;6.686;2022-09-09T07:59:20;1.50;;;0.73;;
13067;SDS011;6600;51.362;6.686;2022-09-09T08:01:46;0.87;;;0.80;;
13067;SDS011;6600;51.362;6.686;2022-09-09T08:04:14;1.03;;;0.60;;
13067;SDS011;6600;51.362;6.686;2022-09-09T08:06:46;2.30;;;0.67;;
13067;SDS011;6600;51.362;6.686;2022-09-09T08:09:14;1.80;;;0.63;;
13067;SDS011;6600;51.362;6.686;2022-09-09T08:11:40;2.13;;;0.50;;
13067;SDS011;6600;51.362;6.686;2022-09-09T08:14:06;1.30;;;0.60;;
13067;SDS011;6600;51.362;6.686;2022-09-09T08:16:33;1.20;;;0.57;;
13067;SDS011;6600;51.362;6.686;2022-09-09T08:19:02;2.57;;;0.70;;
13067;SDS011;6600;51.362;6.686;2022-09-09T08:21:30;1.30;;;0.90;;
13067;SDS011;6600;51.362;6.686;2022-09-09T08:23:57;1.03;;;0.40;;
13067;SDS011;6600;51.362;6.686;2022-09-09T08:26:25;1.03;;;0.40;;
13067;SDS011;6600;51.362;6.686;2022-09-09T08:28:56;0.53;;;0.53;;
13067;SDS011;6600;51.362;6.686;2022-09-09T08:31:24;0.93;;;0.60;;
13067;SDS011;6600;51.362;6.686;2022-09-09T08:33:58;0.80;;;0.37;;
13067;SDS011;6600;51.362;6.686;2022-09-09T08:36:30;0.60;;;0.50;;
13067;SDS011;6600;51.362;6.686;2022-09-09T08:39:01;0.47;;;0.47;;
13067;SDS011;6600;51.362;6.686;2022-09-09T08:55:37;1.33;;;0.60;;
13067;SDS011;6600;51.362;6.686;2022-09-09T09:00:51;1.73;;;0.90;;
13067;SDS011;6600;51.362;6.686;2022-09-09T09:09:21;0.57;;;0.53;;
13067;SDS011;6600;51.362;6.686;2022-09-09T09:11:54;0.50;;;0.50;;
13067;SDS011;6600;51.362;6.686;2022-09-09T09:14:26;0.40;;;0.40;;
13067;SDS011;6600;51.362;6.686;2022-09-09T09:19:30;0.67;;;0.67;;
13067;SDS011;6600;51.362;6.686;2022-09-09T09:30:26;0.73;;;0.60;;
13067;SDS011;6600;51.362;6.686;2022-09-09T09:33:00;0.80;;;0.80;;
13067;SDS011;6600;51.362;6.686;2022-09-09T09:35:30;0.73;;;0.73;;
13067;SDS011;6600;51.362;6.686;2022-09-09T09:37:56;0.77;;;0.50;;
13067;SDS011;6600;51.362;6.686;2022-09-09T09:40:22;1.17;;;0.50;;
13067;SDS011;6600;51.362;6.686;2022-09-09T09:42:50;1.80;;;0.70;;
13067;SDS011;6600;51.362;6.686;2022-09-09T09:48:08;0.47;;;0.43;;
13067;SDS011;6600;51.362;6.686;2022-09-09T09:50:35;0.40;;;0.40;;
13067;SDS011;6600;51.362;6.686;2022-09-09T09:53:20;1.70;;;0.50;;
13067;SDS011;6600;51.362;6.686;2022-09-09T09:55:51;0.53;;;0.23;;
13067;SDS011;6600;51.362;6.686;2022-09-09T09:58:19;0.43;;;0.40;;
13067;SDS011;6600;51.362;6.686;2022-09-09T10:00:49;1.13;;;0.50;;
13067;SDS011;6600;51.362;6.686;2022-09-09T10:05:55;0.83;;;0.43;;
13067;SDS011;6600;51.362;6.686;2022-09-09T10:08:22;0.60;;;0.60;;
13067;SDS011;6600;51.362;6.686;2022-09-09T10:11:02;1.20;;;0.50;;
13067;SDS011;6600;51.362;6.686;2022-09-09T10:13:51;0.30;;;0.30;;
13067;SDS011;6600;51.362;6.686;2022-09-09T10:19:01;0.63;;;0.60;;
13067;SDS011;6600;51.362;6.686;2022-09-09T10:26:55;1.83;;;0.80;;
13067;SDS011;6600;51.362;6.686;2022-09-09T10:29:52;1.67;;;0.47;;
13067;SDS011;6600;51.362;6.686;2022-09-09T10:32:37;0.40;;;0.40;;
13067;SDS011;6600;51.362;6.686;2022-09-09T10:35:21;0.87;;;0.37;;
13067;SDS011;6600;51.362;6.686;2022-09-09T10:43:13;1.57;;;0.67;;
13067;SDS011;6600;51.362;6.686;2022-09-09T10:45:54;1.40;;;0.37;;
13067;SDS011;6600;51.362;6.686;2022-09-09T10:51:15;0.20;;;0.20;;
13067;SDS011;6600;51.362;6.686;2022-09-09T10:54:10;3.10;;;0.53;;
13067;SDS011;6600;51.362;6.686;2022-09-09T10:57:07;0.20;;;0.20;;
13067;SDS011;6600;51.362;6.686;2022-09-09T10:59:40;0.50;;;0.50;;
13067;SDS011;6600;51.362;6.686;2022-09-09T11:08:01;0.43;;;0.30;;
13067;SDS011;6600;51.362;6.686;2022-09-09T11:16:24;0.40;;;0.40;;
13067;SDS011;6600;51.362;6.686;2022-09-09T11:18:55;0.33;;;0.33;;
13067;SDS011;6600;51.362;6.686;2022-09-09T11:21:27;1.80;;;0.63;;
13067;SDS011;6600;51.362;6.686;2022-09-09T11:23:59;2.00;;;0.40;;
13067;SDS011;6600;51.362;6.686;2022-09-09T11:26:35;0.33;;;0.33;;
13067;SDS011;6600;51.362;6.686;2022-09-09T11:32:00;0.50;;;0.30;;
13067;SDS011;6600;51.362;6.686;2022-09-09T11:42:27;0.80;;;0.40;;
13067;SDS011;6600;51.362;6.686;2022-09-09T11:44:52;0.40;;;0.40;;
13067;SDS011;6600;51.362;6.686;2022-09-09T11:47:29;0.30;;;0.30;;
13067;SDS011;6600;51.362;6.686;2022-09-09T11:55:11;0.50;;;0.40;;
13067;SDS011;6600;51.362;6.686;2022-09-09T11:57:58;0.10;;;0.10;;
13067;SDS011;6600;51.362;6.686;2022-09-09T12:00:38;0.63;;;0.57;;
13067;SDS011;6600;51.362;6.686;2022-09-09T12:08:39;0.50;;;0.33;;
13067;SDS011;6600;51.362;6.686;2022-09-09T12:11:07;0.57;;;0.50;;
13067;SDS011;6600;51.362;6.686;2022-09-09T12:13:33;0.30;;;0.30;;
13067;SDS011;6600;51.362;6.686;2022-09-09T12:15:59;0.27;;;0.27;;
13067;SDS011;6600;51.362;6.686;2022-09-09T12:21:48;0.20;;;0.20;;
13067;SDS011;6600;51.362;6.686;2022-09-09T12:24:07;0.20;;;0.20;;
13067;SDS011;6600;51.362;6.686;2022-09-09T12:26:43;0.20;;;0.20;;
13067;SDS011;6600;51.362;6.686;2022-09-09T12:31:59;0.90;;;0.43;;
13067;SDS011;6600;51.362;6.686;2022-09-09T12:34:39;0.93;;;0.50;;
13067;SDS011;6600;51.362;6.686;2022-09-09T12:37:06;0.20;;;0.20;;
13067;SDS011;6600;51.362;6.686;2022-09-09T12:39:59;0.37;;;0.37;;
13067;SDS011;6600;51.362;6.686;2022-09-09T12:42:27;1.43;;;0.50;;
13067;SDS011;6600;51.362;6.686;2022-09-09T12:44:57;1.97;;;0.70;;
13067;SDS011;6600;51.362;6.686;2022-09-09T12:47:31;0.87;;;0.50;;
13067;SDS011;6600;51.362;6.686;2022-09-09T12:50:01;0.30;;;0.30;;
13067;SDS011;6600;51.362;6.686;2022-09-09T12:52:27;0.60;;;0.40;;
13067;SDS011;6600;51.362;6.686;2022-09-09T12:54:57;0.60;;;0.40;;
13067;SDS011;6600;51.362;6.686;2022-09-09T12:57:25;0.20;;;0.20;;
13067;SDS011;6600;51.362;6.686;2022-09-09T13:02:54;0.60;;;0.60;;
13067;SDS011;6600;51.362;6.686;2022-09-09T13:05:26;1.53;;;0.50;;
13067;SDS011;6600;51.362;6.686;2022-09-09T13:08:05;0.83;;;0.70;;
13067;SDS011;6600;51.362;6.686;2022-09-09T13:10:43;0.70;;;0.70;;
13067;SDS011;6600;51.362;6.686;2022-09-09T13:13:14;0.70;;;0.70;;
13067;SDS011;6600;51.362;6.686;2022-09-09T13:15:50;1.27;;;0.60;;
13067;SDS011;6600;51.362;6.686;2022-09-09T13:18:19;1.10;;;0.90;;
13067;SDS011;6600;51.362;6.686;2022-09-09T13:20:48;0.53;;;0.47;;
13067;SDS011;6600;51.362;6.686;2022-09-09T13:23:15;1.40;;;0.53;;
13067;SDS011;6600;51.362;6.686;2022-09-09T13:25:54;1.20;;;0.80;;
13067;SDS011;6600;51.362;6.686;2022-09-09T13:28:25;0.53;;;0.53;;
13067;SDS011;6600;51.362;6.686;2022-09-09T13:33:46;4.00;;;0.90;;
13067;SDS011;6600;51.362;6.686;2022-09-09T13:36:12;0.50;;;0.50;;
13067;SDS011;6600;51.362;6.686;2022-09-09T13:41:19;1.03;;;0.40;;
13067;SDS011;6600;51.362;6.686;2022-09-09T13:43:47;0.90;;;0.60;;
13067;SDS011;6600;51.362;6.686;2022-09-09T13:46:46;3.50;;;0.63;;
13067;SDS011;6600;51.362;6.686;2022-09-09T13:51:35;0.73;;;0.50;;
13067;SDS011;6600;51.362;6.686;2022-09-09T13:54:02;0.70;;;0.50;;
13067;SDS011;6600;51.362;6.686;2022-09-09T13:56:28;1.30;;;0.60;;
13067;SDS011;6600;51.362;6.686;2022-09-09T13:58:54;0.40;;;0.40;;
13067;SDS011;6600;51.362;6.686;2022-09-09T14:01:19;1.10;;;1.00;;
13067;SDS011;6600;51.362;6.686;2022-09-09T14:03:44;0.60;;;0.57;;
13067;SDS011;6600;51.362;6.686;2022-09-09T14:06:10;0.37;;;0.37;;
13067;SDS011;6600;51.362;6.686;2022-09-09T14:08:36;0.37;;;0.37;;
13067;SDS011;6600;51.362;6.686;2022-09-09T14:11:05;0.73;;;0.73;;
13067;SDS011;6600;51.362;6.686;2022-09-09T14:13:31;1.00;;;0.70;;
13067;SDS011;6600;51.362;6.686;2022-09-09T14:15:57;0.40;;;0.40;;
13067;SDS011;6600;51.362;6.686;2022-09-09T14:18:23;0.60;;;0.60;;
13067;SDS011;6600;51.362;6.686;2022-09-09T14:20:50;0.30;;;0.27;;
13067;SDS011;6600;51.362;6.686;2022-09-09T14:23:15;0.30;;;0.30;;
13067;SDS011;6600;51.362;6.686;2022-09-09T14:25:42;0.40;;;0.40;;
13067;SDS011;6600;51.362;6.686;2022-09-09T14:28:09;0.50;;;0.50;;
13067;SDS011;6600;51.362;6.686;2022-09-09T14:30:36;0.37;;;0.20;;
13067;SDS011;6600;51.362;6.686;2022-09-09T14:33:06;0.30;;;0.30;;
13067;SDS011;6600;51.362;6.686;2022-09-09T14:35:33;0.03;;;0.03;;
13067;SDS011;6600;51.362;6.686;2022-09-09T14:37:58;0.20;;;0.20;;
13067;SDS011;6600;51.362;6.686;2022-09-09T14:40:26;0.93;;;0.10;;
13067;SDS011;6600;51.362;6.686;2022-09-09T14:42:52;0.27;;;0.20;;
13067;SDS011;6600;51.362;6.686;2022-09-09T14:45:18;0.47;;;0.20;;
13067;SDS011;6600;51.362;6.686;2022-09-09T14:47:44;0.10;;;0.10;;
13067;SDS011;6600;51.362;6.686;2022-09-09T14:50:10;0.20;;;0.20;;
13067;SDS011;6600;51.362;6.686;2022-09-09T14:52:37;0.30;;;0.30;;
13067;SDS011;6600;51.362;6.686;2022-09-09T14:55:03;1.27;;;0.30;;
13067;SDS011;6600;51.362;6.686;2022-09-09T14:57:29;1.20;;;0.37;;
13067;SDS011;6600;51.362;6.686;2022-09-09T14:59:55;0.57;;;0.47;;
13067;SDS011;6600;51.362;6.686;2022-09-09T15:02:21;0.20;;;0.10;;
13067;SDS011;6600;51.362;6.686;2022-09-09T15:04:47;0.40;;;0.20;;
13067;SDS011;6600;51.362;6.686;2022-09-09T15:07:12;0.47;;;0.10;;
13067;SDS011;6600;51.362;6.686;2022-09-09T15:09:38;0.20;;;0.10;;
13067;SDS011;6600;51.362;6.686;2022-09-09T15:12:03;0.23;;;0.20;;
13067;SDS011;6600;51.362;6.686;2022-09-09T15:14:29;1.10;;;0.20;;
13067;SDS011;6600;51.362;6.686;2022-09-09T15:16:55;0.10;;;0.10;;
13067;SDS011;6600;51.362;6.686;2022-09-09T15:19:21;2.27;;;0.20;;
13067;SDS011;6600;51.362;6.686;2022-09-09T15:21:46;0.43;;;0.40;;
13067;SDS011;6600;51.362;6.686;2022-09-09T15:24:12;0.70;;;0.70;;
13067;SDS011;6600;51.362;6.686;2022-09-09T15:26:38;0.20;;;0.20;;
13067;SDS011;6600;51.362;6.686;2022-09-09T15:29:04;0.30;;;0.30;;
13067;SDS011;6600;51.362;6.686;2022-09-09T15:31:30;0.20;;;0.20;;
13067;SDS011;6600;51.362;6.686;2022-09-09T15:33:57;0.27;;;0.27;;
13067;SDS011;6600;51.362;6.686;2022-09-09T15:36:40;0.17;;;0.17;;
13067;SDS011;6600;51.362;6.686;2022-09-09T15:39:08;0.20;;;0.20;;
13067;SDS011;6600;51.362;6.686;2022-09-09T15:41:37;0.20;;;0.20;;
13067;SDS011;6600;51.362;6.686;2022-09-09T15:44:03;0.40;;;0.20;;
13067;SDS011;6600;51.362;6.686;2022-09-09T15:46:30;0.13;;;0.13;;
13067;SDS011;6600;51.362;6.686;2022-09-09T15:51:36;0.93;;;0.23;;
13067;SDS011;6600;51.362;6.686;2022-09-09T15:54:02;0.77;;;0.37;;
13067;SDS011;6600;51.362;6.686;2022-09-09T15:56:28;0.10;;;0.10;;
13067;SDS011;6600;51.362;6.686;2022-09-09T15:58:58;0.17;;;0.17;;
13067;SDS011;6600;51.362;6.686;2022-09-09T16:01:24;0.00;;;0.00;;
13067;SDS011;6600;51.362;6.686;2022-09-09T16:03:51;0.30;;;0.30;;
13067;SDS011;6600;51.362;6.686;2022-09-09T16:06:17;0.30;;;0.20;;
13067;SDS011;6600;51.362;6.686;2022-09-09T16:08:44;0.40;;;0.40;;
13067;SDS011;6600;51.362;6.686;2022-09-09T16:11:11;0.93;;;0.20;;
13067;SDS011;6600;51.362;6.686;2022-09-09T16:13:40;0.10;;;0.10;;
13067;SDS011;6600;51.362;6.686;2022-09-09T16:16:06;0.10;;;0.10;;
13067;SDS011;6600;51.362;6.686;2022-09-09T16:19:06;0.50;;;0.50;;
13067;SDS011;6600;51.362;6.686;2022-09-09T16:21:26;0.40;;;0.40;;
13067;SDS011;6600;51.362;6.686;2022-09-09T16:23:53;1.03;;;0.37;;
13067;SDS011;6600;51.362;6.686;2022-09-09T16:26:18;1.40;;;0.57;;
13067;SDS011;6600;51.362;6.686;2022-09-09T16:28:44;0.77;;;0.70;;
13067;SDS011;6600;51.362;6.686;2022-09-09T16:31:13;0.37;;;0.37;;
13067;SDS011;6600;51.362;6.686;2022-09-09T16:33:41;1.67;;;0.80;;
13067;SDS011;6600;51.362;6.686;2022-09-09T16:36:07;0.70;;;0.30;;
13067;SDS011;6600;51.362;6.686;2022-09-09T16:38:35;0.50;;;0.50;;
13067;SDS011;6600;51.362;6.686;2022-09-09T16:41:01;1.50;;;0.60;;
13067;SDS011;6600;51.362;6.686;2022-09-09T16:43:30;0.80;;;0.40;;
13067;SDS011;6600;51.362;6.686;2022-09-09T16:45:55;0.50;;;0.30;;
13067;SDS011;6600;51.362;6.686;2022-09-09T16:48:21;0.63;;;0.60;;
13067;SDS011;6600;51.362;6.686;2022-09-09T16:50:46;1.83;;;0.70;;
13067;SDS011;6600;51.362;6.686;2022-09-09T16:53:11;0.73;;;0.60;;
13067;SDS011;6600;51.362;6.686;2022-09-09T16:55:39;0.70;;;0.70;;
13067;SDS011;6600;51.362;6.686;2022-09-09T16:58:05;1.80;;;0.67;;
13067;SDS011;6600;51.362;6.686;2022-09-09T17:00:32;0.97;;;0.73;;
13067;SDS011;6600;51.362;6.686;2022-09-09T17:02:58;1.20;;;0.70;;
13067;SDS011;6600;51.362;6.686;2022-09-09T17:05:24;0.57;;;0.50;;
13067;SDS011;6600;51.362;6.686;2022-09-09T17:07:50;0.30;;;0.30;;
13067;SDS011;6600;51.362;6.686;2022-09-09T17:10:16;0.73;;;0.70;;
13067;SDS011;6600;51.362;6.686;2022-09-09T17:12:41;0.50;;;0.50;;
13067;SDS011;6600;51.362;6.686;2022-09-09T17:15:06;1.07;;;0.97;;
13067;SDS011;6600;51.362;6.686;2022-09-09T17:17:32;0.90;;;0.90;;
13067;SDS011;6600;51.362;6.686;2022-09-09T17:19:57;0.90;;;0.90;;
13067;SDS011;6600;51.362;6.686;2022-09-09T17:22:23;1.87;;;1.37;;
13067;SDS011;6600;51.362;6.686;2022-09-09T17:24:48;1.33;;;1.10;;
13067;SDS011;6600;51.362;6.686;2022-09-09T17:27:14;0.93;;;0.53;;
13067;SDS011;6600;51.362;6.686;2022-09-09T17:29:39;1.73;;;0.60;;
13067;SDS011;6600;51.362;6.686;2022-09-09T17:32:05;0.80;;;0.80;;
13067;SDS011;6600;51.362;6.686;2022-09-09T17:34:32;1.60;;;0.60;;
13067;SDS011;6600;51.362;6.686;2022-09-09T17:36:58;0.90;;;0.70;;
13067;SDS011;6600;51.362;6.686;2022-09-09T17:39:23;0.77;;;0.73;;
13067;SDS011;6600;51.362;6.686;2022-09-09T17:41:49;0.43;;;0.43;;
13067;SDS011;6600;51.362;6.686;2022-09-09T17:44:15;2.67;;;1.00;;
13067;SDS011;6600;51.362;6.686;2022-09-09T17:46:41;3.87;;;1.40;;
13067;SDS011;6600;51.362;6.686;2022-09-09T17:49:14;1.80;;;1.47;;
13067;SDS011;6600;51.362;6.686;2022-09-09T17:51:42;2.53;;;1.70;;